createdAt,value
2023-04-23T00:04:12.303Z,8.07
2023-04-23T00:09:17.504Z,9.45
2023-04-23T00:14:20.763Z,9.18
2023-04-23T00:19:23.191Z,8.70
2023-04-23T00:24:25.658Z,8.95
2023-04-23T00:29:28.544Z,7.93
2023-04-23T00:34:31.322Z,8.43
2023-04-23T00:39:34.275Z,8.02
2023-04-23T00:44:38.216Z,8.18
2023-04-23T00:49:43.101Z,8.20
2023-04-23T00:54:46.055Z,9.90
2023-04-23T00:59:49.001Z,8.82
2023-04-23T01:04:52.024Z,8.45
2023-04-23T01:09:55.046Z,9.10
2023-04-23T01:14:58.777Z,9.27
2023-04-23T01:20:01.261Z,8.98
2023-04-23T01:25:08.792Z,9.88
2023-04-23T01:30:12.114Z,9.70
2023-04-23T01:35:14.682Z,8.80
2023-04-23T01:40:18.692Z,8.32
2023-04-23T01:45:22.389Z,8.35
2023-04-23T01:50:26.489Z,9.07
2023-04-23T01:55:29.857Z,8.70
2023-04-23T02:00:32.315Z,8.90
2023-04-23T02:05:36.323Z,7.47
2023-04-23T02:10:39.530Z,9.02
2023-04-23T02:15:43.354Z,8.63
2023-04-23T02:20:48.031Z,7.65
2023-04-23T02:25:51.283Z,7.75
2023-04-23T02:30:53.703Z,7.72
2023-04-23T02:35:56.467Z,8.82
2023-04-23T02:40:58.834Z,7.60
2023-04-23T02:46:08.850Z,7.03
2023-04-23T02:51:14.412Z,8.30
2023-04-23T02:56:17.806Z,7.65
2023-04-23T03:01:20.801Z,7.53
2023-04-23T03:06:23.344Z,7.28
2023-04-23T03:11:28.056Z,8.27
2023-04-23T03:16:32.967Z,8.02
2023-04-23T03:21:36.299Z,8.40
2023-04-23T03:26:39.143Z,7.18
2023-04-23T03:31:41.609Z,8.00
2023-04-23T03:36:48.880Z,13.30
2023-04-23T03:41:52.479Z,6.45
2023-04-23T03:47:00.542Z,5.40
2023-04-23T03:52:03.560Z,6.28
2023-04-23T03:57:09.064Z,4.72
2023-04-23T04:02:14.783Z,13.25
2023-04-23T04:07:18.339Z,4.50
2023-04-23T04:12:22.269Z,4.05
2023-04-23T04:17:25.898Z,3.60
2023-04-23T04:22:30.751Z,6.80
2023-04-23T04:27:34.847Z,3.70
2023-04-23T04:32:39.035Z,4.35
2023-04-23T04:37:44.039Z,3.97
2023-04-23T04:47:51.849Z,3.88
2023-04-23T04:52:54.464Z,3.58
2023-04-23T04:57:57.224Z,3.92
2023-04-23T05:03:00.414Z,4.13
2023-04-23T05:08:03.584Z,4.50
2023-04-23T05:13:06.119Z,4.80
2023-04-23T05:18:11.090Z,3.42
2023-04-23T05:23:14.114Z,4.30
2023-04-23T05:28:16.508Z,4.43
2023-04-23T05:33:19.440Z,5.22
2023-04-23T05:38:23.123Z,4.68
2023-04-23T05:43:25.654Z,4.05
2023-04-23T05:48:28.038Z,4.13
2023-04-23T05:53:30.357Z,5.20
2023-04-23T05:58:32.732Z,4.78
2023-04-23T06:03:38.016Z,5.47
2023-04-23T06:08:41.414Z,3.97
2023-04-23T06:13:44.093Z,4.57
2023-04-23T06:18:47.102Z,4.47
2023-04-23T06:23:50.473Z,4.72
2023-04-23T06:28:53.273Z,4.38
2023-04-23T06:34:03.915Z,4.20
2023-04-23T06:39:08.747Z,4.50
2023-04-23T06:44:12.008Z,4.47
2023-04-23T06:49:28.222Z,4.28
2023-04-23T06:54:30.980Z,4.40
2023-04-23T06:59:34.322Z,4.63
2023-04-23T07:04:38.103Z,4.43
2023-04-23T07:09:40.439Z,4.55
2023-04-23T07:14:43.957Z,5.07
2023-04-23T07:19:46.958Z,5.60
2023-04-23T07:24:49.374Z,5.03
2023-04-23T07:29:51.783Z,5.75
2023-04-23T07:34:56.528Z,6.75
2023-04-23T07:39:59.543Z,7.18
2023-04-23T07:45:02.709Z,6.88
2023-04-23T07:50:07.526Z,7.78
2023-04-23T07:55:11.125Z,7.15
2023-04-23T08:00:14.604Z,6.95
2023-04-23T08:05:16.980Z,7.22
2023-04-23T08:10:19.929Z,6.88
2023-04-23T08:15:23.503Z,6.75
2023-04-23T08:20:27.329Z,7.38
2023-04-23T08:25:30.274Z,6.82
2023-04-23T08:30:33.513Z,8.23
2023-04-23T08:35:38.225Z,7.20
2023-04-23T08:40:43.406Z,7.70
2023-04-23T08:45:50.180Z,7.55
2023-04-23T08:50:52.524Z,7.65
2023-04-23T08:56:00.636Z,7.70
2023-04-23T09:01:03.419Z,7.70
2023-04-23T09:06:06.523Z,8.05
2023-04-23T09:11:11.482Z,8.30
2023-04-23T09:16:15.230Z,8.30
2023-04-23T09:21:18.833Z,6.90
2023-04-23T09:26:22.794Z,6.38
2023-04-23T09:31:25.861Z,6.55
2023-04-23T09:36:28.562Z,6.72
2023-04-23T09:41:31.516Z,5.40
2023-04-23T09:46:35.105Z,5.20
2023-04-23T09:51:40.320Z,5.38
2023-04-23T09:56:43.457Z,4.50
2023-04-23T10:01:47.468Z,4.20
2023-04-23T10:07:17.958Z,3.97
2023-04-23T10:17:30.403Z,3.70
2023-04-23T10:22:34.491Z,4.43
2023-04-23T10:27:52.748Z,5.00
2023-04-23T10:32:57.658Z,5.18
2023-04-23T10:38:00.198Z,4.30
2023-04-23T10:43:03.000Z,4.18
2023-04-23T10:48:06.522Z,3.90
2023-04-23T10:53:19.873Z,3.60
2023-04-23T10:58:24.834Z,3.15
2023-04-23T11:03:29.947Z,3.58
2023-04-23T11:08:35.800Z,3.28
2023-04-23T11:18:57.180Z,4.05
2023-04-23T11:24:03.237Z,3.90
2023-04-23T11:29:07.823Z,3.60
2023-04-23T11:34:12.232Z,3.03
2023-04-23T11:39:15.197Z,2.72
2023-04-23T11:44:19.218Z,3.05
2023-04-23T11:49:23.842Z,3.05
2023-04-23T11:54:30.275Z,2.75
2023-04-23T11:59:33.207Z,2.83
2023-04-23T12:04:36.953Z,2.80
2023-04-23T12:09:41.314Z,3.00
2023-04-23T12:14:44.180Z,3.22
2023-04-23T12:19:46.642Z,2.60
2023-04-23T12:24:55.119Z,3.15
2023-04-23T12:30:01.690Z,3.55
2023-04-23T12:35:06.822Z,3.58
2023-04-23T12:40:10.915Z,3.58
2023-04-23T12:45:13.860Z,3.55
2023-04-23T12:50:16.188Z,3.33
2023-04-23T12:55:18.535Z,2.92
2023-04-23T13:00:20.984Z,3.03
2023-04-23T13:05:24.367Z,2.72
2023-04-23T13:10:27.981Z,3.17
2023-04-23T13:15:30.944Z,2.75
2023-04-23T13:20:33.735Z,3.28
2023-04-23T13:25:37.098Z,2.95
2023-04-23T13:30:39.921Z,3.40
2023-04-23T13:35:42.789Z,3.35
2023-04-23T13:40:47.034Z,4.10
2023-04-23T13:45:49.506Z,4.18
2023-04-23T13:50:52.752Z,3.97
2023-04-23T13:55:56.747Z,4.13
2023-04-23T14:00:59.248Z,4.25
2023-04-23T14:06:03.106Z,3.63
2023-04-23T14:11:05.932Z,3.30
2023-04-23T14:16:09.185Z,3.40
2023-04-23T14:21:12.014Z,3.75
2023-04-23T14:26:40.773Z,3.25
2023-04-23T14:31:50.091Z,3.97
2023-04-23T14:36:53.520Z,4.55
2023-04-23T14:41:56.537Z,4.25
2023-04-23T14:46:59.468Z,4.05
2023-04-23T14:52:03.141Z,3.63
2023-04-23T14:57:06.117Z,3.40
2023-04-23T15:02:09.445Z,3.80
2023-04-23T15:07:11.925Z,3.63
2023-04-23T15:12:40.146Z,3.88
2023-04-23T15:17:42.777Z,4.07
2023-04-23T15:22:48.058Z,4.15
2023-04-23T15:27:57.252Z,4.18
2023-04-23T15:33:00.190Z,4.50
2023-04-23T15:38:03.882Z,4.25
2023-04-23T15:43:06.224Z,4.88
2023-04-23T15:48:09.958Z,4.78
2023-04-23T15:53:12.991Z,5.57
2023-04-23T15:58:15.406Z,5.10
2023-04-23T16:03:18.047Z,5.90
2023-04-23T16:08:22.785Z,7.32
2023-04-23T16:13:27.654Z,7.32
2023-04-23T16:18:30.148Z,7.97
2023-04-23T16:23:32.380Z,9.40
2023-04-23T16:28:35.466Z,7.20
2023-04-23T16:33:37.805Z,6.50
2023-04-23T16:38:41.198Z,6.78
2023-04-23T16:43:43.556Z,7.22
2023-04-23T16:48:46.871Z,5.93
2023-04-23T16:53:49.751Z,7.72
2023-04-23T16:58:52.235Z,7.10
2023-04-23T17:03:54.906Z,6.45
2023-04-23T17:08:59.713Z,6.85
2023-04-23T17:14:02.207Z,10.30
2023-04-23T17:19:04.627Z,7.53
2023-04-23T17:24:07.508Z,6.75
2023-04-23T17:29:10.889Z,7.65
2023-04-23T17:34:13.248Z,6.13
2023-04-23T17:39:20.081Z,7.53
2023-04-23T17:44:22.655Z,6.90
2023-04-23T17:49:25.083Z,10.30
2023-04-23T17:54:27.471Z,8.43
2023-04-23T17:59:30.487Z,6.95
2023-04-23T18:04:34.828Z,9.95
2023-04-23T18:09:37.267Z,7.75
2023-04-23T18:14:39.574Z,8.27
2023-04-23T18:19:42.098Z,10.10
2023-04-23T18:24:46.177Z,10.43
2023-04-23T18:29:48.574Z,12.35
2023-04-23T18:34:51.220Z,9.68
2023-04-23T18:39:55.233Z,8.80
2023-04-23T18:44:58.038Z,9.18
2023-04-23T18:50:09.652Z,9.13
2023-04-23T18:55:12.265Z,9.60
2023-04-23T19:00:15.342Z,8.15
2023-04-23T19:05:20.573Z,9.20
2023-04-23T19:10:23.291Z,10.63
2023-04-23T19:15:26.256Z,11.68
2023-04-23T19:20:28.760Z,11.65
2023-04-23T19:25:31.369Z,10.80
2023-04-23T19:30:33.919Z,12.10
2023-04-23T19:35:39.383Z,10.02
2023-04-23T19:40:42.935Z,13.20
2023-04-23T19:45:46.640Z,10.60
2023-04-23T19:50:49.318Z,10.18
2023-04-23T19:55:51.670Z,9.77
2023-04-23T20:00:54.092Z,11.95
2023-04-23T20:05:58.582Z,12.75
2023-04-23T20:11:00.968Z,12.50
2023-04-23T20:16:04.407Z,11.90
2023-04-23T20:21:06.858Z,11.45
2023-04-23T20:26:09.320Z,12.55
2023-04-23T20:31:11.689Z,11.45
2023-04-23T20:36:16.088Z,13.77
2023-04-23T20:41:19.179Z,12.00
2023-04-23T20:46:23.217Z,11.90
2023-04-23T20:51:27.704Z,11.52
2023-04-23T20:56:30.912Z,12.52
2023-04-23T21:01:33.304Z,12.68
2023-04-23T21:06:35.756Z,14.45
2023-04-23T21:11:38.025Z,14.30
2023-04-23T21:16:41.650Z,14.20
2023-04-23T21:21:43.970Z,14.48
2023-04-23T21:26:46.827Z,15.07
2023-04-23T21:31:52.644Z,15.90
2023-04-23T21:36:55.104Z,14.05
2023-04-23T21:41:57.953Z,15.18
2023-04-23T21:47:00.408Z,14.85
2023-04-23T21:52:02.708Z,15.20
2023-04-23T21:57:06.165Z,15.20
2023-04-23T22:02:09.079Z,16.30
2023-04-23T22:07:13.792Z,22.58
2023-04-23T22:12:16.591Z,29.45
2023-04-23T22:17:20.961Z,32.50
2023-04-23T22:22:23.857Z,35.40
2023-04-23T22:27:26.245Z,39.17
2023-04-23T22:32:29.495Z,39.42
2023-04-23T22:37:33.425Z,39.58
2023-04-23T22:42:35.935Z,38.85
2023-04-23T22:47:38.795Z,39.20
2023-04-23T22:52:42.419Z,37.22
2023-04-23T22:57:44.734Z,38.20
2023-04-23T23:02:47.199Z,39.30
2023-04-23T23:07:50.481Z,37.90
2023-04-23T23:12:53.274Z,34.75
2023-04-23T23:17:55.737Z,36.38
2023-04-23T23:22:58.080Z,35.63
2023-04-23T23:28:00.373Z,34.90
2023-04-23T23:33:03.316Z,33.50
2023-04-23T23:38:05.835Z,33.92
2023-04-23T23:43:08.344Z,34.88
2023-04-23T23:48:11.961Z,33.97
2023-04-23T23:53:14.732Z,36.35
2023-04-23T23:58:17.526Z,34.03
